DW2755 Weather Reports


Display with metric or nautical units.
time (UTC)temp
F
wind
direction
speed
MPH
gust
MPH
rain 1hr
in
rain 24hr
in
rain mn
in
humidity
%
barometer
mb
20240624053030 73 220 3.0 5.0 0.00 0.00 0.00 47 1003.7
20240624051530 72 246 1.0 3.0 0.00 0.00 0.00 47 1003.7
20240624050042 73 237 1.0 3.0 0.00 0.00 0.00 47 1003.7
20240624044534 74 325 0.0 1.0 0.00 0.00 0.00 44 1003.8
20240624043028 75 325 1.0 4.0 0.00 0.00 0.00 43 1003.8
20240624041531 76 355 1.0 2.0 0.00 0.00 0.00 42 1003.6
20240624040029 76 242 0.0 3.0 0.00 0.00 0.00 39 1003.3
20240624034535 80 342 0.0 1.0 0.00 0.00 0.00 37 1003.3
20240624033026 81 342 1.0 3.0 0.00 0.00 0.00 33 1002.9
20240624031527 83 355 0.0 3.0 0.00 0.00 0.00 31 1002.9
20240624030025 84 355 1.0 4.0 0.00 0.00 0.00 29 1002.6
20240624024524 85 26 6.0 11.0 0.00 0.00 0.00 27 1002.6
20240624023032 86 331 3.0 6.0 0.00 0.00 0.00 27 1002.6
20240624021525 86 5 4.0 8.0 0.00 0.00 0.00 27 1002.7
20240624020029 86 59 3.0 7.0 0.00 0.00 0.00 28 1002.8
20240624014523 87 230 6.0 14.0 0.00 0.00 0.00 26 1002.4
20240624013022 90 240 3.0 5.0 0.00 0.00 0.00 29 1002.2
20240624011527 90 346 1.0 3.0 0.00 0.00 0.00 26 1002.1
20240624010020 89 252 0.0 3.0 0.00 0.00 0.00 28 1002.5
20240624004520 89 17 2.0 8.0 0.00 0.00 0.00 25 1002.4
20240624003021 89 355 4.0 13.0 0.00 0.00 0.00 24 1002.4
20240624001519 90 13 4.0 20.0 0.00 0.00 0.00 22 1002.5
20240624000019 91 309 6.0 13.0 0.00 0.00 0.00 22 1002.5
20240623234527 93 5 2.0 4.0 0.00 0.00 0.00 23 1002.3
20240623233016 93 34 2.0 5.0 0.00 0.00 0.00 21 1002.4
20240623231529 94 360 2.0 5.0 0.00 0.00 0.00 21 1002.5
20240623230015 95 45 4.0 8.0 0.00 0.00 0.00 21 1002.6
20240623224512 94 24 3.0 9.0 0.00 0.00 0.00 21 1002.7
20240623223012 95 355 3.0 6.0 0.00 0.00 0.00 21 1002.8
20240623221509 96 95 1.0 4.0 0.00 0.00 0.00 21 1003.0
20240623220009 96 74 3.0 5.0 0.00 0.00 0.00 20 1003.3
20240623214511 96 100 2.0 7.0 0.00 0.00 0.00 20 1003.3
20240623213006 95 84 2.0 9.0 0.00 0.00 0.00 19 1003.4
20240623211505 95 127 3.0 8.0 0.00 0.00 0.00 20 1003.7
20240623210008 95 163 5.0 13.0 0.00 0.00 0.00 20 1003.7
20240623204501 95 213 8.0 13.0 0.00 0.00 0.00 19 1003.9
20240623203000 95 133 4.0 10.0 0.00 0.00 0.00 20 1004.1
20240623201602 97 23 1.0 6.0 0.00 0.00 0.00 20 1004.2
20240623200101 94 158 5.0 10.0 0.00 0.00 0.00 20 1004.4
20240623194600 95 150 3.0 7.0 0.00 0.00 0.00 20 1004.7
20240623193102 94 254 6.0 12.0 0.00 0.00 0.00 20 1004.8
20240623191553 94 157 4.0 10.0 0.00 0.00 0.00 21 1005.1
20240623190109 96 76 2.0 7.0 0.00 0.00 0.00 19 1005.4
20240623184549 96 69 4.0 8.0 0.00 0.00 0.00 19 1005.6
20240623183045 96 144 3.0 8.0 0.00 0.00 0.00 20 1005.8
20240623181543 95 61 1.0 6.0 0.00 0.00 0.00 19 1006.0
20240623180040 93 30 4.0 8.0 0.00 0.00 0.00 20 1006.1
20240623174611 92 175 5.0 8.0 0.00 0.00 0.00 19 1006.2
20240623173046 93 125 3.0 7.0 0.00 0.00 0.00 20 1006.2
20240623171533 92 104 4.0 7.0 0.00 0.00 0.00 21 1006.4
20240623170026 92 121 3.0 5.0 0.00 0.00 0.00 23 1006.6
20240623164525 90 105 3.0 7.0 0.00 0.00 0.00 26 1006.6
20240623163020 88 127 3.0 7.0 0.00 0.00 0.00 28 1006.9
20240623161527 87 188 2.0 7.0 0.00 0.00 0.00 28 1007.1
20240623160014 85 113 3.0 7.0 0.00 0.00 0.00 32 1007.2
20240623154506 83 157 2.0 7.0 0.00 0.00 0.00 35 1007.3
20240623153003 82 155 3.0 6.0 0.00 0.00 0.00 36 1007.6
20240623151600 81 109 1.0 4.0 0.00 0.00 0.00 38 1007.6
20240623150103 79 94 1.0 4.0 0.00 0.00 0.00 41 1007.8
20240623144551 76 138 2.0 4.0 0.00 0.00 0.00 44 1008.0
20240623143046 75 142 1.0 3.0 0.00 0.00 0.00 47 1008.1
20240623141543 73 107 0.0 3.0 0.00 0.00 0.00 54 1008.1
20240623140037 71 92 1.0 3.0 0.00 0.00 0.00 59 1008.4
20240623134533 70 119 2.0 4.0 0.00 0.00 0.00 55 1008.5
20240623133028 68 14 0.0 3.0 0.00 0.00 0.00 56 1008.3
20240623131537 65 311 0.0 2.0 0.00 0.00 0.00 60 1008.4
20240623130020 63 311 0.0 1.0 0.00 0.00 0.00 64 1008.5
20240623124515 61 311 0.0 3.0 0.00 0.00 0.00 67 1008.5
20240623123011 59 205 0.0 0.0 0.00 0.00 0.00 69 1008.4
20240623121506 58 205 0.0 1.0 0.00 0.00 0.00 69 1008.3
20240623120003 58 205 1.0 2.0 0.00 0.00 0.00 69 1008.3
20240623114600 58 244 0.0 3.0 0.00 0.00 0.00 67 1008.2
20240623113107 58 355 0.0 4.0 0.00 0.00 0.00 65 1008.1
20240623111556 59 302 1.0 3.0 0.00 0.00 0.00 64 1008.0
20240623110054 59 9 0.0 2.0 0.00 0.00 0.00 62 1007.8
20240623104633 60 292 0.0 2.0 0.00 0.00 0.00 60 1007.7
20240623103048 61 284 1.0 2.0 0.00 0.00 0.00 58 1007.6
20240623101549 61 246 2.0 7.0 0.00 0.00 0.00 57 1007.7
20240623100048 62 281 0.0 3.0 0.00 0.00 0.00 55 1007.6
20240623094556 61 238 2.0 4.0 0.00 0.00 0.00 57 1007.6
20240623093058 64 248 1.0 2.0 0.00 0.00 0.00 53 1007.7
20240623091546 66 242 1.0 4.0 0.00 0.00 0.00 46 1007.8
20240623090043 64 223 2.0 5.0 0.00 0.00 0.00 48 1007.8
20240623084551 63 231 4.0 6.0 0.00 0.00 0.00 52 1008.0
20240623083039 62 233 2.0 6.0 0.00 0.00 0.00 58 1007.9
20240623081539 62 246 2.0 4.0 0.00 0.00 0.00 58 1008.2
20240623080040 61 229 4.0 6.0 0.00 0.00 0.00 59 1008.2
20240623074536 62 208 1.0 5.0 0.00 0.00 0.00 56 1008.3
20240623073035 62 205 1.0 3.0 0.00 0.00 0.00 59 1008.2
20240623071531 64 192 0.0 2.0 0.00 0.00 0.00 53 1008.2
20240623070026 65 193 0.0 2.0 0.00 0.00 0.00 50 1008.3
20240623064523 67 246 0.0 2.0 0.00 0.00 0.00 49 1008.3
20240623063021 67 258 1.0 4.0 0.00 0.00 0.00 46 1008.5
20240623061520 67 274 1.0 6.0 0.00 0.00 0.00 47 1008.8
20240623060030 67 238 1.0 5.0 0.00 0.00 0.00 47 1008.8
20240623054525 69 224 1.0 4.0 0.00 0.00 0.00 44 1009.0